Ada, Kansas
Current Conditions -  °F | °C
As of 2:53 PM on Friday 31 Oct 2014 (Local Time) from KSLN Reporting Station
Clear Clear  
Wind Chill: 43°   Ceiling: Unl
Heat Index: 48°   Visibility: 10mi
Dew Point: 18°   Wind: 12mph
Humidity: 30%   Direction: 40°NE
Pressure: 30.48"   Gusts: NA
Location:  39.1542°N, 97.5941°W
Report Text: KSLN 311953Z 04010KT 10SM CLR 09/M08 A3048 RMK AO2 SLP326 T00891078
Loading
Personal Weather Stations






























Interactive Weather Map
Tropical Storm Tracking
New forecast layout! Learn more

10-Day Weather Forecast

Advertisements
Track Severe Weather on mobile